Bellville, Ohio
Current Conditions -  °F | °C
As of 3:52 PM on Sunday 23 Nov 2014 (Local Time) from KMFD Reporting Station
Clear Clear  
Wind Chill: 57°   Ceiling: Unl
Heat Index: 57°   Visibility: 10mi
Dew Point: 42°   Wind: 12mph
Humidity: 57%   Direction: 120°ESE
Pressure: 29.73"   Gusts: NA
Location:  40.62°N, 82.51°W
Report Text: KMFD 232052Z 12010KT 10SM CLR 14/06 A2973 RMK AO2 SLP069 T01390056 56046
Loading
Personal Weather Stations






























Interactive Weather Map New forecast layout! Learn more

10-Day Weather Forecast

Advertisements
Track Severe Weather on mobile